Time;durP1;ratioP1;P1;durP2;ratioP2;P2;SDS_P1;SDS_P2;PMS_P1;PMS_P2;Temp;Humidity;BMP_temperature;BMP_pressure;BME280_temperature;BME280_humidity;BME280_pressure;Samples;Min_cycle;Max_cycle;Signal;HPM_P1;HPM_P2
2021/09/04 00:01:00;;;;;;;20.02;10.68;;;;;;;;;;5035560;28;20033;-43
2021/09/04 00:03:26;;;;;;;19.70;8.57;;;;;;;;;;5035705;28;20140;-42
2021/09/04 00:05:52;;;;;;;16.45;8.50;;;;;;;;;;5035768;28;20095;-42
2021/09/04 00:08:18;;;;;;;18.38;9.27;;;;;;;;;;5035914;28;20025;-44
2021/09/04 00:10:47;;;;;;;21.55;10.73;;;;;;;;;;5035728;28;20061;-41
2021/09/04 00:13:13;;;;;;;18.05;9.85;;;;;;;;;;5036016;28;20044;-43
2021/09/04 00:15:41;;;;;;;25.38;13.95;;;;;;;;;;5035955;28;20026;-44
2021/09/04 00:18:07;;;;;;;28.83;13.05;;;;;;;;;;5036006;28;20056;-44
2021/09/04 00:20:33;;;;;;;22.08;11.43;;;;;;;;;;5035824;28;20492;-45
2021/09/04 00:23:00;;;;;;;18.30;9.70;;;;;;;;;;5035613;28;20420;-44
2021/09/04 00:25:26;;;;;;;27.15;11.60;;;;;;;;;;5035226;28;20033;-44
2021/09/04 00:27:52;;;;;;;18.60;10.25;;;;;;;;;;5035765;28;20029;-46
2021/09/04 00:30:20;;;;;;;20.75;9.80;;;;;;;;;;5035033;28;20029;-44
2021/09/04 00:32:49;;;;;;;18.52;9.45;;;;;;;;;;5034856;28;20048;-44
2021/09/04 00:35:15;;;;;;;19.92;9.93;;;;;;;;;;5035814;28;20057;-42
2021/09/04 00:37:41;;;;;;;21.60;9.43;;;;;;;;;;5035526;28;20528;-44
2021/09/04 00:40:07;;;;;;;20.90;10.07;;;;;;;;;;5035543;28;20026;-43
2021/09/04 00:42:34;;;;;;;20.58;9.55;;;;;;;;;;5035374;28;20055;-44
2021/09/04 00:45:02;;;;;;;21.80;12.90;;;;;;;;;;5049940;28;20056;-43
2021/09/04 00:47:28;;;;;;;43.13;21.38;;;;;;;;;;5034715;28;20504;-44
2021/09/04 00:49:54;;;;;;;28.55;16.15;;;;;;;;;;5034813;28;20029;-44
2021/09/04 00:52:23;;;;;;;33.20;18.25;;;;;;;;;;5034225;28;20487;-43
2021/09/04 00:54:49;;;;;;;29.88;14.63;;;;;;;;;;5035353;28;20032;-44
2021/09/04 00:57:16;;;;;;;22.15;11.18;;;;;;;;;;5035307;28;20056;-44
2021/09/04 00:59:42;;;;;;;20.05;10.98;;;;;;;;;;5034784;28;20029;-43
2021/09/04 01:02:08;;;;;;;28.10;13.38;;;;;;;;;;5034937;28;20025;-43
2021/09/04 01:04:34;;;;;;;26.05;11.20;;;;;;;;;;5035013;28;20140;-44
2021/09/04 01:07:03;;;;;;;23.95;10.85;;;;;;;;;;5034363;28;20037;-44
2021/09/04 01:09:29;;;;;;;28.63;14.10;;;;;;;;;;5034273;28;20029;-45
2021/09/04 01:11:55;;;;;;;39.63;16.67;;;;;;;;;;5034828;28;20049;-44
2021/09/04 01:14:21;;;;;;;44.58;26.33;;;;;;;;;;5034251;28;20024;-44
2021/09/04 01:16:47;;;;;;;30.00;15.15;;;;;;;;;;5034775;28;20021;-44
2021/09/04 01:19:13;;;;;;;27.13;15.13;;;;;;;;;;5034513;28;20104;-45
2021/09/04 01:21:40;;;;;;;33.80;19.23;;;;;;;;;;5034113;28;20013;-44
2021/09/04 01:24:06;;;;;;;34.47;17.65;;;;;;;;;;5034648;28;20025;-44
2021/09/04 01:26:37;;;;;;;36.88;17.83;;;;;;;;;;5034267;28;20038;-45
2021/09/04 01:29:03;;;;;;;26.30;14.52;;;;;;;;;;5034344;28;20017;-44
2021/09/04 01:31:29;;;;;;;35.28;18.77;;;;;;;;;;5034256;28;20462;-45
2021/09/04 01:33:58;;;;;;;77.20;48.10;;;;;;;;;;5034063;28;20064;-45
2021/09/04 01:36:33;;;;;;;77.75;48.80;;;;;;;;;;5033939;28;20053;-45
2021/09/04 01:38:59;;;;;;;35.75;22.02;;;;;;;;;;5034301;28;20035;-46
2021/09/04 01:41:26;;;;;;;28.20;16.52;;;;;;;;;;5034075;28;20045;-45
2021/09/04 01:43:53;;;;;;;31.45;15.23;;;;;;;;;;5034046;28;20076;-45
2021/09/04 01:46:19;;;;;;;23.75;16.13;;;;;;;;;;5033902;28;20041;-44
2021/09/04 01:48:45;;;;;;;32.33;14.35;;;;;;;;;;5033697;28;20025;-44
2021/09/04 01:51:11;;;;;;;23.48;12.25;;;;;;;;;;5033759;28;20025;-44
2021/09/04 01:53:37;;;;;;;22.00;12.25;;;;;;;;;;5033727;28;20026;-44
2021/09/04 01:56:03;;;;;;;21.90;10.77;;;;;;;;;;5033916;28;20112;-43
2021/09/04 01:58:29;;;;;;;16.90;9.70;;;;;;;;;;5033775;28;20025;-44
2021/09/04 02:00:55;;;;;;;16.05;8.57;;;;;;;;;;5033567;28;20025;-44
2021/09/04 02:03:21;;;;;;;16.10;8.57;;;;;;;;;;5032579;28;20504;-43
2021/09/04 02:05:47;;;;;;;15.23;8.57;;;;;;;;;;5033344;28;20405;-43
2021/09/04 02:08:13;;;;;;;13.32;8.30;;;;;;;;;;5033612;28;20030;-43
2021/09/04 02:10:40;;;;;;;17.23;9.10;;;;;;;;;;5033948;28;20426;-43
2021/09/04 02:13:06;;;;;;;16.92;8.45;;;;;;;;;;5033479;28;20024;-44
2021/09/04 02:15:32;;;;;;;19.17;8.75;;;;;;;;;;5033210;28;20088;-44
2021/09/04 02:17:58;;;;;;;14.05;8.13;;;;;;;;;;5033877;28;20182;-43
2021/09/04 02:20:28;;;;;;;15.30;8.30;;;;;;;;;;5033774;28;20028;-43
2021/09/04 02:22:54;;;;;;;11.93;7.80;;;;;;;;;;5033796;28;20044;-44
2021/09/04 02:25:20;;;;;;;18.17;7.90;;;;;;;;;;5033551;28;20057;-45
2021/09/04 02:27:46;;;;;;;16.60;7.45;;;;;;;;;;5032731;28;20083;-44
2021/09/04 02:30:12;;;;;;;15.32;8.15;;;;;;;;;;5032755;28;20036;-44
2021/09/04 02:32:38;;;;;;;13.10;8.07;;;;;;;;;;5032781;28;20044;-44
2021/09/04 02:35:05;;;;;;;20.80;8.38;;;;;;;;;;5032983;28;20472;-44
2021/09/04 02:37:31;;;;;;;15.90;8.93;;;;;;;;;;5033503;28;20461;-44
2021/09/04 02:40:00;;;;;;;14.15;8.27;;;;;;;;;;5033461;28;20384;-44
2021/09/04 02:42:26;;;;;;;19.05;8.30;;;;;;;;;;5033405;28;20163;-44
2021/09/04 02:44:54;;;;;;;13.73;8.15;;;;;;;;;;5033012;28;20043;-44
2021/09/04 02:47:20;;;;;;;19.38;8.68;;;;;;;;;;5032617;28;20037;-44
2021/09/04 02:49:46;;;;;;;14.43;7.95;;;;;;;;;;5032769;28;20112;-44
2021/09/04 02:52:12;;;;;;;13.48;7.40;;;;;;;;;;5032784;28;20496;-44
2021/09/04 02:54:38;;;;;;;12.80;6.85;;;;;;;;;;5033175;28;20048;-44
2021/09/04 02:57:04;;;;;;;14.27;7.70;;;;;;;;;;5032664;28;20044;-44
2021/09/04 02:59:31;;;;;;;15.30;7.03;;;;;;;;;;5032314;28;20048;-44
2021/09/04 03:01:57;;;;;;;12.20;7.28;;;;;;;;;;5032444;28;20053;-44
2021/09/04 03:04:25;;;;;;;13.32;7.35;;;;;;;;;;5032328;28;20516;-44
2021/09/04 03:06:56;;;;;;;17.10;7.85;;;;;;;;;;5032705;28;20120;-44
2021/09/04 03:09:22;;;;;;;16.27;7.90;;;;;;;;;;5033284;28;20040;-44
2021/09/04 03:11:48;;;;;;;14.02;7.22;;;;;;;;;;5032994;28;20117;-44
2021/09/04 03:14:16;;;;;;;23.52;8.68;;;;;;;;;;5032045;28;20033;-44
2021/09/04 03:16:42;;;;;;;15.38;8.02;;;;;;;;;;5032845;28;20040;-44
2021/09/04 03:19:09;;;;;;;12.05;6.93;;;;;;;;;;5032908;28;20079;-45
2021/09/04 03:21:35;;;;;;;15.10;7.07;;;;;;;;;;5032451;28;20123;-47
2021/09/04 03:24:01;;;;;;;11.65;7.07;;;;;;;;;;5032977;28;20018;-45
2021/09/04 03:26:27;;;;;;;11.52;7.50;;;;;;;;;;5032858;28;20053;-44
2021/09/04 03:28:53;;;;;;;12.90;6.95;;;;;;;;;;5032924;28;20031;-43
2021/09/04 03:31:19;;;;;;;13.82;7.05;;;;;;;;;;5032469;28;20037;-43
2021/09/04 03:33:45;;;;;;;11.93;7.00;;;;;;;;;;5032323;28;20029;-45
2021/09/04 03:36:11;;;;;;;9.43;6.63;;;;;;;;;;5032274;28;20026;-44
2021/09/04 03:38:37;;;;;;;10.15;6.22;;;;;;;;;;5032348;28;20029;-44
2021/09/04 03:41:03;;;;;;;16.02;7.43;;;;;;;;;;5032688;28;20088;-43
2021/09/04 03:43:34;;;;;;;18.45;8.75;;;;;;;;;;5032326;28;20120;-45
2021/09/04 03:46:01;;;;;;;8.75;6.03;;;;;;;;;;5031850;28;20041;-44
2021/09/04 03:48:27;;;;;;;17.02;8.35;;;;;;;;;;5032006;28;20470;-44
2021/09/04 03:50:55;;;;;;;14.02;7.75;;;;;;;;;;5032017;28;20393;-46
2021/09/04 03:53:21;;;;;;;18.98;8.85;;;;;;;;;;5032297;28;20017;-45
2021/09/04 03:55:51;;;;;;;18.65;10.02;;;;;;;;;;5032653;28;20036;-45
2021/09/04 03:58:17;;;;;;;18.45;9.70;;;;;;;;;;5032185;28;20052;-45
2021/09/04 04:00:43;;;;;;;24.08;10.27;;;;;;;;;;5031956;28;20064;-43
2021/09/04 04:03:10;;;;;;;28.75;12.57;;;;;;;;;;5031872;28;20470;-45
2021/09/04 04:05:36;;;;;;;30.75;15.35;;;;;;;;;;5031698;28;20053;-45
2021/09/04 04:08:02;;;;;;;38.13;19.52;;;;;;;;;;5032006;28;20021;-44
2021/09/04 04:10:28;;;;;;;28.02;14.63;;;;;;;;;;5032117;28;20109;-46
2021/09/04 04:12:54;;;;;;;24.73;11.70;;;;;;;;;;5031491;28;20026;-43
2021/09/04 04:15:20;;;;;;;24.85;12.90;;;;;;;;;;5031710;28;20082;-44
2021/09/04 04:17:48;;;;;;;27.73;12.20;;;;;;;;;;5031776;28;20385;-44
2021/09/04 04:20:14;;;;;;;29.58;11.88;;;;;;;;;;5031754;28;20017;-44
2021/09/04 04:22:40;;;;;;;29.17;12.02;;;;;;;;;;5032095;28;20051;-44
2021/09/04 04:25:09;;;;;;;22.30;11.27;;;;;;;;;;5032356;28;20045;-44
2021/09/04 04:27:35;;;;;;;28.33;10.75;;;;;;;;;;5034070;28;20139;-45
2021/09/04 04:30:01;;;;;;;23.05;10.82;;;;;;;;;;5035416;28;20022;-44
2021/09/04 04:32:27;;;;;;;20.52;10.60;;;;;;;;;;5035394;28;20396;-44
2021/09/04 04:34:53;;;;;;;27.65;12.50;;;;;;;;;;5035135;28;20175;-45
2021/09/04 04:37:19;;;;;;;23.30;12.07;;;;;;;;;;5035215;28;20104;-44
2021/09/04 04:39:48;;;;;;;26.10;10.32;;;;;;;;;;5050295;28;20026;-44
2021/09/04 04:42:14;;;;;;;26.73;11.50;;;;;;;;;;5035423;28;20018;-45
2021/09/04 04:44:40;;;;;;;18.15;9.98;;;;;;;;;;5034830;28;20438;-44
2021/09/04 04:47:06;;;;;;;18.30;9.63;;;;;;;;;;5035062;28;20034;-44
2021/09/04 04:49:32;;;;;;;33.13;9.35;;;;;;;;;;5035121;28;20025;-44
2021/09/04 04:51:58;;;;;;;15.85;8.57;;;;;;;;;;5035452;28;20132;-44
2021/09/04 04:54:26;;;;;;;23.63;8.90;;;;;;;;;;5035130;28;20377;-44
2021/09/04 04:56:52;;;;;;;20.55;9.52;;;;;;;;;;5035230;28;20021;-43
2021/09/04 04:59:21;;;;;;;18.30;9.02;;;;;;;;;;5034745;28;20080;-45
2021/09/04 05:01:47;;;;;;;19.08;8.95;;;;;;;;;;5034980;28;20489;-44
2021/09/04 05:04:13;;;;;;;19.38;8.38;;;;;;;;;;5035074;28;20061;-45
2021/09/04 05:06:39;;;;;;;21.40;9.48;;;;;;;;;;5034430;28;20065;-45
2021/09/04 05:09:05;;;;;;;16.33;9.23;;;;;;;;;;5034936;28;20021;-44
2021/09/04 05:11:31;;;;;;;17.52;9.38;;;;;;;;;;5034978;28;20028;-44
2021/09/04 05:13:57;;;;;;;16.05;8.23;;;;;;;;;;5034938;28;20018;-45
2021/09/04 05:16:23;;;;;;;16.65;9.18;;;;;;;;;;5034897;28;20029;-44
2021/09/04 05:18:49;;;;;;;15.25;8.45;;;;;;;;;;5034898;28;20021;-45
2021/09/04 05:21:15;;;;;;;20.67;8.38;;;;;;;;;;5034560;28;20029;-45
2021/09/04 05:23:41;;;;;;;20.40;8.77;;;;;;;;;;5034725;28;20053;-45
2021/09/04 05:26:08;;;;;;;16.00;7.63;;;;;;;;;;5034614;28;20542;-45
2021/09/04 05:28:34;;;;;;;18.80;8.00;;;;;;;;;;5033884;28;20395;-43
2021/09/04 05:31:02;;;;;;;12.98;7.57;;;;;;;;;;5034237;28;20028;-46
2021/09/04 05:33:28;;;;;;;20.98;8.45;;;;;;;;;;5034317;28;20040;-43
2021/09/04 05:35:56;;;;;;;12.18;7.45;;;;;;;;;;5034754;28;20481;-42
2021/09/04 05:38:22;;;;;;;17.00;8.27;;;;;;;;;;5034394;28;20022;-42
2021/09/04 05:40:49;;;;;;;15.52;9.98;;;;;;;;;;5034485;28;20108;-44
2021/09/04 05:43:15;;;;;;;14.68;8.57;;;;;;;;;;5033735;28;20135;-43
2021/09/04 05:45:44;;;;;;;16.65;9.93;;;;;;;;;;5033894;28;20032;-43
2021/09/04 05:48:10;;;;;;;16.95;9.75;;;;;;;;;;5033914;28;20029;-44
2021/09/04 05:50:36;;;;;;;11.95;8.52;;;;;;;;;;5033823;28;20497;-44
2021/09/04 05:53:02;;;;;;;12.93;7.53;;;;;;;;;;5034112;28;20060;-44
2021/09/04 05:55:28;;;;;;;11.23;7.47;;;;;;;;;;5034481;28;20028;-44
2021/09/04 05:57:55;;;;;;;10.15;7.15;;;;;;;;;;5034360;28;20018;-44
2021/09/04 06:00:21;;;;;;;11.05;7.68;;;;;;;;;;5033956;28;20067;-44
2021/09/04 06:02:47;;;;;;;11.30;6.68;;;;;;;;;;5034303;28;20105;-43
2021/09/04 06:05:13;;;;;;;10.85;6.68;;;;;;;;;;5034049;28;20427;-44
2021/09/04 06:07:39;;;;;;;9.68;6.65;;;;;;;;;;5033616;28;20076;-45
2021/09/04 06:10:06;;;;;;;8.43;6.20;;;;;;;;;;5049539;28;20425;-44
2021/09/04 06:12:32;;;;;;;10.38;6.90;;;;;;;;;;5033390;28;20163;-44
2021/09/04 06:14:58;;;;;;;12.43;8.20;;;;;;;;;;5033831;28;20536;-44
2021/09/04 06:17:26;;;;;;;16.23;9.02;;;;;;;;;;5034154;28;20021;-44
2021/09/04 06:19:52;;;;;;;13.27;8.00;;;;;;;;;;5034196;28;20029;-44
2021/09/04 06:22:18;;;;;;;13.07;8.38;;;;;;;;;;5033354;28;20033;-44
2021/09/04 06:24:44;;;;;;;13.20;8.52;;;;;;;;;;5033971;28;20022;-44
2021/09/04 06:27:10;;;;;;;11.90;7.68;;;;;;;;;;5033510;28;20044;-45
2021/09/04 06:29:37;;;;;;;18.38;8.13;;;;;;;;;;5033866;28;20099;-44
2021/09/04 06:32:05;;;;;;;13.88;8.18;;;;;;;;;;5033582;28;20064;-45
2021/09/04 06:34:32;;;;;;;12.82;7.22;;;;;;;;;;5033261;28;20495;-45
2021/09/04 06:36:58;;;;;;;10.30;7.07;;;;;;;;;;5033164;28;20029;-45
2021/09/04 06:39:24;;;;;;;13.15;7.57;;;;;;;;;;5033582;28;20377;-47
2021/09/04 06:41:50;;;;;;;13.10;6.93;;;;;;;;;;5033550;28;20037;-44
2021/09/04 06:44:16;;;;;;;11.93;6.57;;;;;;;;;;5033624;28;20097;-44
2021/09/04 06:46:42;;;;;;;16.58;6.50;;;;;;;;;;5033404;28;20143;-44
2021/09/04 06:49:08;;;;;;;14.43;6.63;;;;;;;;;;5032705;28;20104;-45
2021/09/04 06:51:34;;;;;;;9.07;6.72;;;;;;;;;;5048224;28;20030;-44
2021/09/04 06:54:00;;;;;;;9.30;6.75;;;;;;;;;;5033298;28;20083;-44
2021/09/04 06:56:27;;;;;;;11.13;6.57;;;;;;;;;;5033197;28;20029;-44
2021/09/04 06:58:53;;;;;;;17.58;8.38;;;;;;;;;;5032592;28;20025;-45
2021/09/04 07:01:19;;;;;;;11.70;6.10;;;;;;;;;;5032688;28;20053;-44
2021/09/04 07:03:45;;;;;;;12.60;7.25;;;;;;;;;;5032795;28;20155;-44
2021/09/04 07:06:17;;;;;;;13.10;6.60;;;;;;;;;;5032831;28;20026;-44
2021/09/04 07:08:44;;;;;;;10.63;6.18;;;;;;;;;;5032795;28;20028;-45
2021/09/04 07:11:10;;;;;;;10.88;6.35;;;;;;;;;;5032930;28;20029;-44
2021/09/04 07:13:36;;;;;;;9.30;6.53;;;;;;;;;;5032714;28;20029;-44
2021/09/04 07:16:02;;;;;;;11.95;7.13;;;;;;;;;;5032522;28;20485;-44
2021/09/04 07:18:28;;;;;;;11.88;6.70;;;;;;;;;;5032876;28;20021;-43
2021/09/04 07:20:54;;;;;;;13.93;6.55;;;;;;;;;;5033175;28;20382;-44
2021/09/04 07:23:20;;;;;;;9.60;6.40;;;;;;;;;;5019288;28;20031;-45
2021/09/04 07:25:47;;;;;;;11.60;6.20;;;;;;;;;;5011932;28;20467;-44
2021/09/04 07:28:13;;;;;;;10.93;6.03;;;;;;;;;;5011763;28;20022;-44
2021/09/04 07:30:39;;;;;;;9.50;5.90;;;;;;;;;;5011884;28;20050;-43
2021/09/04 07:33:05;;;;;;;17.45;12.05;;;;;;;;;;5011750;28;20077;-43
2021/09/04 07:35:32;;;;;;;29.42;18.45;;;;;;;;;;5011896;28;20084;-43
2021/09/04 07:37:58;;;;;;;38.40;21.58;;;;;;;;;;5012041;28;20121;-44
2021/09/04 07:40:24;;;;;;;27.50;17.52;;;;;;;;;;5012002;28;20022;-44
2021/09/04 07:42:50;;;;;;;33.63;21.48;;;;;;;;;;5011830;28;20187;-43
2021/09/04 07:45:17;;;;;;;31.10;23.45;;;;;;;;;;5009638;28;20544;-44
2021/09/04 07:47:43;;;;;;;15.20;9.40;;;;;;;;;;5012041;28;20058;-44
2021/09/04 07:50:09;;;;;;;20.40;14.45;;;;;;;;;;5011430;28;20099;-44
2021/09/04 07:52:35;;;;;;;21.55;15.60;;;;;;;;;;5011731;28;20091;-44
2021/09/04 07:55:01;;;;;;;26.70;14.98;;;;;;;;;;5011843;28;20071;-44
2021/09/04 07:57:27;;;;;;;60.90;39.42;;;;;;;;;;5012201;28;20029;-44
2021/09/04 07:59:56;;;;;;;43.50;26.23;;;;;;;;;;5011558;28;20018;-45
2021/09/04 08:02:24;;;;;;;31.65;19.67;;;;;;;;;;5013999;28;20044;-45
2021/09/04 08:04:50;;;;;;;45.53;25.05;;;;;;;;;;5015156;28;20088;-44
2021/09/04 08:07:16;;;;;;;18.38;12.68;;;;;;;;;;5015209;28;20088;-45
2021/09/04 08:09:42;;;;;;;9.10;5.07;;;;;;;;;;5030315;28;20022;-44
2021/09/04 08:12:08;;;;;;;12.65;6.55;;;;;;;;;;5015009;28;20028;-44
2021/09/04 08:14:34;;;;;;;23.60;12.70;;;;;;;;;;5015066;28;20532;-44
2021/09/04 08:17:00;;;;;;;23.13;15.05;;;;;;;;;;5015268;28;20029;-45
2021/09/04 08:19:27;;;;;;;7.55;4.72;;;;;;;;;;5014874;28;20026;-44
2021/09/04 08:21:53;;;;;;;6.55;4.15;;;;;;;;;;5015540;28;20026;-43
2021/09/04 08:24:19;;;;;;;48.92;26.20;;;;;;;;;;5016378;28;20026;-42
2021/09/04 08:26:45;;;;;;;17.33;10.52;;;;;;;;;;5015706;28;20393;-42
2021/09/04 08:29:11;;;;;;;9.00;5.70;;;;;;;;;;5015513;28;20033;-42
2021/09/04 08:31:37;;;;;;;8.35;5.32;;;;;;;;;;5014466;28;20497;-42
2021/09/04 08:34:03;;;;;;;38.65;23.10;;;;;;;;;;5014869;28;20057;-42
2021/09/04 08:36:29;;;;;;;8.73;4.68;;;;;;;;;;5014691;28;20112;-43
2021/09/04 08:38:55;;;;;;;24.50;12.32;;;;;;;;;;5014708;28;20026;-43
2021/09/04 08:41:21;;;;;;;20.65;8.55;;;;;;;;;;5014585;28;20564;-42
2021/09/04 08:43:47;;;;;;;6.82;3.78;;;;;;;;;;5014095;28;20029;-44
2021/09/04 08:46:14;;;;;;;28.77;19.27;;;;;;;;;;5014434;28;20030;-42
2021/09/04 08:48:42;;;;;;;6.28;4.55;;;;;;;;;;5014406;28;20509;-42
2021/09/04 08:51:08;;;;;;;13.02;7.57;;;;;;;;;;5014425;28;20045;-42
2021/09/04 08:53:34;;;;;;;7.85;4.72;;;;;;;;;;5014323;28;20056;-42
2021/09/04 08:56:00;;;;;;;4.32;3.20;;;;;;;;;;5014459;28;20033;-43
2021/09/04 08:58:26;;;;;;;4.15;3.10;;;;;;;;;;5015577;28;20049;-44
2021/09/04 09:00:52;;;;;;;6.47;4.80;;;;;;;;;;5015796;28;20751;-43
2021/09/04 09:03:23;;;;;;;5.65;3.70;;;;;;;;;;5015537;28;20040;-45
2021/09/04 09:05:50;;;;;;;54.20;33.33;;;;;;;;;;5015382;28;20460;-44
2021/09/04 09:08:17;;;;;;;19.30;10.73;;;;;;;;;;5015506;28;20034;-45
2021/09/04 09:10:44;;;;;;;117.82;72.35;;;;;;;;;;5015588;28;20057;-45
2021/09/04 09:13:15;;;;;;;48.97;26.98;;;;;;;;;;5014804;28;20030;-44
2021/09/04 09:15:41;;;;;;;28.95;14.68;;;;;;;;;;5015462;28;20174;-44
2021/09/04 09:18:07;;;;;;;24.40;14.48;;;;;;;;;;5015270;28;20033;-44
2021/09/04 09:20:41;;;;;;;15.35;10.40;;;;;;;;;;5014636;28;20022;-43
2021/09/04 09:23:12;;;;;;;38.67;18.42;;;;;;;;;;5014642;28;20445;-45
2021/09/04 09:25:40;;;;;;;12.95;6.55;;;;;;;;;;5015328;28;20022;-44
2021/09/04 09:28:13;;;;;;;14.00;8.75;;;;;;;;;;5014731;28;20049;-46
2021/09/04 09:30:46;;;;;;;22.83;15.30;;;;;;;;;;5015178;28;20026;-45
2021/09/04 09:33:13;;;;;;;5.07;3.83;;;;;;;;;;5014991;28;20037;-43
2021/09/04 09:35:40;;;;;;;8.07;3.78;;;;;;;;;;5015146;28;20486;-43
2021/09/04 09:38:07;;;;;;;42.70;26.63;;;;;;;;;;5014912;28;20033;-45
2021/09/04 09:40:33;;;;;;;120.10;87.47;;;;;;;;;;5014880;28;20076;-43
2021/09/04 09:43:00;;;;;;;47.55;29.30;;;;;;;;;;5014904;28;20121;-43
2021/09/04 09:45:42;;;;;;;42.83;29.10;;;;;;;;;;5014745;28;20030;-44
2021/09/04 09:48:08;;;;;;;23.27;13.43;;;;;;;;;;5014677;28;20034;-43
2021/09/04 09:50:35;;;;;;;8.90;5.53;;;;;;;;;;5014688;28;20018;-42
2021/09/04 09:53:05;;;;;;;15.95;11.68;;;;;;;;;;5014666;28;20030;-43
2021/09/04 09:55:31;;;;;;;45.30;32.45;;;;;;;;;;5014826;28;20018;-44
2021/09/04 09:57:58;;;;;;;18.13;11.73;;;;;;;;;;5014368;28;20037;-43
2021/09/04 10:00:26;;;;;;;36.70;20.90;;;;;;;;;;5014111;28;20112;-42
2021/09/04 10:02:53;;;;;;;31.85;17.02;;;;;;;;;;5014391;28;20044;-43
2021/09/04 10:05:24;;;;;;;5.63;3.35;;;;;;;;;;5014235;28;20054;-43
2021/09/04 10:07:53;;;;;;;10.48;3.65;;;;;;;;;;5014272;28;20379;-42
2021/09/04 10:10:20;;;;;;;7.88;2.50;;;;;;;;;;5014398;28;20041;-43
2021/09/04 10:12:47;;;;;;;2.55;2.10;;;;;;;;;;5014200;28;20026;-42
2021/09/04 10:15:15;;;;;;;4.03;2.58;;;;;;;;;;5014450;28;20022;-42
2021/09/04 10:17:42;;;;;;;3.95;2.28;;;;;;;;;;5014359;28;20041;-43
2021/09/04 10:20:08;;;;;;;5.60;2.58;;;;;;;;;;5013039;28;20033;-43
2021/09/04 10:22:34;;;;;;;4.53;2.70;;;;;;;;;;5013988;28;20030;-44
2021/09/04 10:25:02;;;;;;;5.30;2.60;;;;;;;;;;5013648;28;20378;-43
2021/09/04 10:27:34;;;;;;;6.05;2.60;;;;;;;;;;5013949;28;20030;-42
2021/09/04 10:30:25;;;;;;;3.42;2.53;;;;;;;;;;5014167;28;20025;-43
2021/09/04 10:32:55;;;;;;;2.28;2.08;;;;;;;;;;5013839;28;20032;-42
2021/09/04 10:35:37;;;;;;;4.65;2.50;;;;;;;;;;5013839;28;20064;-43
2021/09/04 10:38:11;;;;;;;4.57;3.00;;;;;;;;;;5013958;28;20371;-43
2021/09/04 10:40:37;;;;;;;3.90;2.97;;;;;;;;;;5013945;28;20528;-43
2021/09/04 10:43:08;;;;;;;5.78;2.45;;;;;;;;;;5013673;28;20033;-43
2021/09/04 10:45:35;;;;;;;6.65;2.75;;;;;;;;;;5013634;28;20029;-44
2021/09/04 10:48:01;;;;;;;2.70;2.00;;;;;;;;;;5013801;28;20040;-44
2021/09/04 10:50:33;;;;;;;2.28;2.08;;;;;;;;;;5013853;28;20050;-42
2021/09/04 10:53:09;;;;;;;5.20;3.63;;;;;;;;;;5013715;28;20032;-43
2021/09/04 10:55:40;;;;;;;5.50;2.50;;;;;;;;;;5013797;28;20455;-44
2021/09/04 10:58:16;;;;;;;2.30;2.10;;;;;;;;;;5013520;28;20025;-43
2021/09/04 11:00:43;;;;;;;3.78;2.33;;;;;;;;;;5013664;28;20026;-42
2021/09/04 11:03:13;;;;;;;3.58;2.40;;;;;;;;;;5013449;28;20049;-43
2021/09/04 11:05:42;;;;;;;3.33;2.40;;;;;;;;;;5013546;28;20112;-44
2021/09/04 11:08:29;;;;;;;5.00;2.25;;;;;;;;;;5013287;28;20062;-43
2021/09/04 11:11:10;;;;;;;7.40;3.35;;;;;;;;;;5013218;28;20098;-44
2021/09/04 11:13:38;;;;;;;3.38;2.20;;;;;;;;;;5013387;28;20052;-44
2021/09/04 11:16:23;;;;;;;3.92;2.22;;;;;;;;;;5013580;28;20025;-43
2021/09/04 11:18:49;;;;;;;5.50;2.30;;;;;;;;;;5013400;28;20022;-43
2021/09/04 11:21:17;;;;;;;5.13;2.58;;;;;;;;;;4996728;28;20123;-44
2021/09/04 11:23:43;;;;;;;3.03;2.72;;;;;;;;;;4986103;28;20029;-43
2021/09/04 11:26:09;;;;;;;3.30;2.33;;;;;;;;;;4984408;28;20026;-43
2021/09/04 11:28:35;;;;;;;6.93;2.67;;;;;;;;;;4984009;28;20069;-43
2021/09/04 11:31:02;;;;;;;6.18;2.97;;;;;;;;;;4983770;28;20034;-42
2021/09/04 11:33:28;;;;;;;10.02;3.33;;;;;;;;;;4983688;28;20530;-43
2021/09/04 11:35:55;;;;;;;7.63;3.03;;;;;;;;;;4985971;28;20025;-42
2021/09/04 11:38:22;;;;;;;22.38;13.25;;;;;;;;;;4993347;28;20050;-42
2021/09/04 11:40:48;;;;;;;27.38;17.75;;;;;;;;;;5037140;28;20444;-41
2021/09/04 11:43:16;;;;;;;22.80;14.55;;;;;;;;;;5036821;28;20504;-41
2021/09/04 11:45:42;;;;;;;6.75;5.35;;;;;;;;;;5036970;28;20026;-42
2021/09/04 11:48:13;;;;;;;6.45;3.75;;;;;;;;;;5036795;28;20403;-42
2021/09/04 11:50:39;;;;;;;14.77;11.02;;;;;;;;;;5036845;28;20097;-42
2021/09/04 11:53:12;;;;;;;10.27;7.75;;;;;;;;;;5036747;28;20079;-43
2021/09/04 11:55:41;;;;;;;39.22;27.08;;;;;;;;;;5036586;28;20022;-41
2021/09/04 11:58:14;;;;;;;61.85;40.50;;;;;;;;;;5019281;28;20038;-43
2021/09/04 12:00:41;;;;;;;14.00;4.50;;;;;;;;;;5016821;28;20076;-43
2021/09/04 12:03:10;;;;;;;6.18;4.80;;;;;;;;;;5016800;28;20037;-43
2021/09/04 12:05:46;;;;;;;3.58;2.95;;;;;;;;;;5016578;28;20056;-43
2021/09/04 12:08:14;;;;;;;4.85;3.50;;;;;;;;;;5016913;28;20033;-43
2021/09/04 12:10:41;;;;;;;9.70;5.03;;;;;;;;;;5016898;28;20028;-43
2021/09/04 12:13:12;;;;;;;30.15;18.52;;;;;;;;;;5016612;28;20029;-42
2021/09/04 12:15:38;;;;;;;11.70;4.63;;;;;;;;;;5016561;28;20057;-44
2021/09/04 12:18:08;;;;;;;7.45;3.88;;;;;;;;;;5016284;28;20447;-44
2021/09/04 12:20:36;;;;;;;48.65;28.30;;;;;;;;;;5016406;28;20036;-44
2021/09/04 12:23:16;;;;;;;13.38;7.57;;;;;;;;;;5016505;28;20022;-44
2021/09/04 12:25:45;;;;;;;84.57;49.50;;;;;;;;;;5007059;28;20128;-43
2021/09/04 12:28:12;;;;;;;65.28;43.22;;;;;;;;;;4988527;28;20080;-43
2021/09/04 12:30:57;;;;;;;20.33;13.27;;;;;;;;;;4987003;28;20062;-43
2021/09/04 12:33:23;;;;;;;59.05;36.40;;;;;;;;;;4987025;28;20368;-43
2021/09/04 12:35:57;;;;;;;9.10;5.90;;;;;;;;;;4986786;28;20054;-43
2021/09/04 12:38:26;;;;;;;3.38;2.47;;;;;;;;;;4986819;28;20030;-43
2021/09/04 12:40:59;;;;;;;6.22;3.15;;;;;;;;;;4986863;28;20119;-44
2021/09/04 12:43:25;;;;;;;5.20;2.30;;;;;;;;;;4987580;28;20088;-43
2021/09/04 12:46:00;;;;;;;4.05;2.38;;;;;;;;;;4986457;28;20032;-43
2021/09/04 12:48:34;;;;;;;7.22;2.33;;;;;;;;;;4986938;28;20343;-42
2021/09/04 12:51:16;;;;;;;13.65;9.02;;;;;;;;;;4986474;28;20053;-43
2021/09/04 12:53:43;;;;;;;6.20;2.60;;;;;;;;;;4986511;28;20027;-43
2021/09/04 12:56:13;;;;;;;2.40;1.95;;;;;;;;;;4987435;28;20073;-43
2021/09/04 12:58:58;;;;;;;6.03;2.55;;;;;;;;;;4986510;28;20098;-43
2021/09/04 13:01:26;;;;;;;4.72;3.33;;;;;;;;;;4986324;28;20058;-45
2021/09/04 13:03:52;;;;;;;6.95;4.07;;;;;;;;;;4986275;28;20412;-44
2021/09/04 13:06:18;;;;;;;9.13;6.07;;;;;;;;;;4986365;28;20030;-44
2021/09/04 13:08:44;;;;;;;116.15;72.40;;;;;;;;;;4986545;28;20039;-44
2021/09/04 13:11:10;;;;;;;89.22;47.08;;;;;;;;;;4986242;28;20088;-45
2021/09/04 13:13:36;;;;;;;29.70;11.80;;;;;;;;;;4986386;28;20026;-43
2021/09/04 13:16:02;;;;;;;61.75;37.13;;;;;;;;;;4986347;28;20231;-44
2021/09/04 13:18:28;;;;;;;14.35;8.25;;;;;;;;;;4985960;28;20050;-44
2021/09/04 13:20:54;;;;;;;72.35;37.85;;;;;;;;;;4985974;28;20026;-43
2021/09/04 13:23:20;;;;;;;23.40;10.45;;;;;;;;;;4985838;28;20092;-44
2021/09/04 13:25:46;;;;;;;12.52;5.63;;;;;;;;;;4986113;28;20141;-44
2021/09/04 13:28:12;;;;;;;20.10;8.55;;;;;;;;;;4985734;28;20038;-44
2021/09/04 13:30:38;;;;;;;16.42;8.55;;;;;;;;;;4986075;28;20197;-44
2021/09/04 13:33:06;;;;;;;5.75;2.60;;;;;;;;;;4985766;28;20026;-44
2021/09/04 13:35:33;;;;;;;6.85;3.35;;;;;;;;;;4985692;28;20023;-45
2021/09/04 13:37:59;;;;;;;15.98;7.47;;;;;;;;;;4985555;28;20033;-44
2021/09/04 13:40:25;;;;;;;10.80;5.97;;;;;;;;;;4985955;28;20042;-45
2021/09/04 13:42:51;;;;;;;6.32;4.03;;;;;;;;;;4987493;28;20022;-44
2021/09/04 13:45:17;;;;;;;8.52;5.03;;;;;;;;;;4987055;28;20861;-43
2021/09/04 13:47:46;;;;;;;21.77;15.93;;;;;;;;;;4985481;28;20034;-44
2021/09/04 13:50:12;;;;;;;56.80;37.47;;;;;;;;;;4986471;28;20033;-42
2021/09/04 13:52:38;;;;;;;28.00;20.55;;;;;;;;;;4985015;28;20037;-43
2021/09/04 13:55:06;;;;;;;5.88;3.03;;;;;;;;;;4986611;28;20139;-43
2021/09/04 13:57:32;;;;;;;5.65;2.60;;;;;;;;;;5010497;28;20054;-42
2021/09/04 13:59:59;;;;;;;10.98;7.20;;;;;;;;;;4994947;28;20724;-44
2021/09/04 14:02:25;;;;;;;8.52;5.75;;;;;;;;;;4994938;28;20073;-43
2021/09/04 14:04:51;;;;;;;34.22;22.33;;;;;;;;;;4994860;28;20114;-43
2021/09/04 14:07:17;;;;;;;53.65;35.53;;;;;;;;;;4994894;28;20045;-44
2021/09/04 14:09:43;;;;;;;17.95;10.63;;;;;;;;;;4995156;28;20026;-44
2021/09/04 14:12:09;;;;;;;45.40;28.23;;;;;;;;;;4994907;28;20050;-42
2021/09/04 14:14:35;;;;;;;6.10;2.53;;;;;;;;;;4994740;28;20474;-42
2021/09/04 14:17:06;;;;;;;5.93;2.60;;;;;;;;;;4994688;28;20030;-42
2021/09/04 14:19:32;;;;;;;8.52;2.67;;;;;;;;;;4994942;28;20027;-45
2021/09/04 14:21:58;;;;;;;4.22;2.30;;;;;;;;;;4994637;28;20026;-45
2021/09/04 14:24:24;;;;;;;5.22;2.28;;;;;;;;;;4994796;28;20057;-44
2021/09/04 14:26:51;;;;;;;3.15;2.30;;;;;;;;;;4994670;28;20550;-43
2021/09/04 14:29:17;;;;;;;2.30;2.00;;;;;;;;;;4994841;28;20030;-43